createdAt,value
2024-04-24T00:00:54.593Z,13.22
2024-04-24T00:03:21.433Z,13.20
2024-04-24T00:05:48.356Z,13.24
2024-04-24T00:08:15.087Z,13.30
2024-04-24T00:10:42.044Z,13.26
2024-04-24T00:13:08.779Z,13.25
2024-04-24T00:15:36.061Z,13.26
2024-04-24T00:18:03.035Z,13.27
2024-04-24T00:20:29.810Z,13.30
2024-04-24T00:22:56.658Z,13.24
2024-04-24T00:25:23.576Z,13.27
2024-04-24T00:27:56.189Z,13.26
2024-04-24T00:30:23.377Z,13.28
2024-04-24T00:32:50.229Z,13.25
2024-04-24T00:35:17.064Z,13.23
2024-04-24T00:37:44.015Z,13.25
2024-04-24T00:40:10.955Z,13.23
2024-04-24T00:42:37.720Z,13.24
2024-04-24T00:45:04.875Z,13.22
2024-04-24T00:47:33.079Z,13.17
2024-04-24T00:50:02.251Z,13.21
2024-04-24T00:52:29.930Z,13.21
2024-04-24T00:54:57.204Z,13.22
2024-04-24T00:57:23.947Z,13.21
2024-04-24T00:59:50.780Z,13.12
2024-04-24T01:02:17.773Z,13.06
2024-04-24T01:04:44.545Z,13.13
2024-04-24T01:07:11.383Z,13.17
2024-04-24T01:09:38.075Z,13.19
2024-04-24T01:12:04.996Z,13.19
2024-04-24T01:14:32.076Z,13.22
2024-04-24T01:17:01.169Z,13.14
2024-04-24T01:19:47.733Z,13.07
2024-04-24T01:22:35.853Z,13.05
2024-04-24T01:25:15.945Z,13.06
2024-04-24T01:27:42.681Z,13.01
2024-04-24T01:30:09.466Z,13.02
2024-04-24T01:32:37.866Z,13.04
2024-04-24T01:35:04.898Z,13.07
2024-04-24T01:37:31.584Z,13.09
2024-04-24T01:39:58.488Z,12.99
2024-04-24T01:42:25.217Z,13.00
2024-04-24T01:44:51.940Z,13.00
2024-04-24T01:47:18.775Z,12.98
2024-04-24T01:49:45.618Z,12.98
2024-04-24T01:52:12.357Z,12.97
2024-04-24T01:54:39.258Z,12.94
2024-04-24T01:57:06.040Z,12.92
2024-04-24T01:59:32.805Z,12.99
2024-04-24T02:01:59.839Z,13.00
2024-04-24T02:04:26.593Z,12.98
2024-04-24T02:06:53.381Z,12.95
2024-04-24T02:09:20.121Z,12.98
2024-04-24T02:11:51.343Z,12.99
2024-04-24T02:14:23.817Z,12.94
2024-04-24T02:16:50.544Z,12.94
2024-04-24T02:19:17.235Z,12.96
2024-04-24T02:21:44.150Z,12.93
2024-04-24T02:24:20.872Z,12.90
2024-04-24T02:26:47.682Z,12.90
2024-04-24T02:29:14.393Z,12.90
2024-04-24T02:31:41.193Z,12.85
2024-04-24T02:34:08.120Z,12.84
2024-04-24T02:36:34.813Z,12.80
2024-04-24T02:39:01.569Z,12.75
2024-04-24T02:41:28.317Z,12.63
2024-04-24T02:43:56.064Z,12.63
2024-04-24T02:46:22.848Z,12.58
2024-04-24T02:48:49.549Z,12.56
2024-04-24T02:51:16.348Z,12.59
2024-04-24T02:53:43.043Z,12.59
2024-04-24T02:56:09.775Z,12.60
2024-04-24T02:58:36.703Z,12.63
2024-04-24T03:01:03.574Z,12.54
2024-04-24T03:03:30.574Z,12.50
2024-04-24T03:05:57.337Z,12.48
2024-04-24T03:08:25.479Z,12.48
2024-04-24T03:10:52.402Z,12.45
2024-04-24T03:13:19.192Z,12.40
2024-04-24T03:15:45.931Z,12.39
2024-04-24T03:18:12.871Z,12.34
2024-04-24T03:20:39.671Z,12.28
2024-04-24T03:23:06.635Z,12.17
2024-04-24T03:25:33.710Z,12.16
2024-04-24T03:28:00.456Z,12.06
2024-04-24T03:30:27.186Z,12.08
2024-04-24T03:32:54.217Z,11.97
2024-04-24T03:35:21.043Z,11.89
2024-04-24T03:37:49.042Z,11.90
2024-04-24T03:40:15.912Z,11.95
2024-04-24T03:42:45.367Z,11.98
2024-04-24T03:45:12.078Z,12.01
2024-04-24T03:47:39.220Z,11.95
2024-04-24T03:50:06.617Z,11.90
2024-04-24T03:52:33.369Z,11.90
2024-04-24T03:55:00.382Z,11.86
2024-04-24T03:57:27.050Z,11.91
2024-04-24T03:59:53.730Z,11.88
2024-04-24T04:02:20.636Z,11.89
2024-04-24T04:04:47.818Z,11.85
2024-04-24T04:07:14.516Z,11.93
2024-04-24T04:09:41.463Z,11.84
2024-04-24T04:12:12.432Z,11.84
2024-04-24T04:14:39.879Z,11.72
2024-04-24T04:17:06.702Z,11.72
2024-04-24T04:19:33.414Z,11.66
2024-04-24T04:22:00.142Z,11.71
2024-04-24T04:24:27.052Z,11.80
2024-04-24T04:26:53.792Z,11.82
2024-04-24T04:29:20.662Z,11.77
2024-04-24T04:31:47.554Z,11.77
2024-04-24T04:34:14.263Z,11.73
2024-04-24T04:36:41.066Z,11.75
2024-04-24T04:39:07.886Z,11.85
2024-04-24T04:41:34.679Z,11.92
2024-04-24T04:44:01.569Z,11.99
2024-04-24T04:46:28.278Z,12.00
2024-04-24T04:48:55.066Z,12.03
2024-04-24T04:51:21.776Z,12.12
2024-04-24T04:53:48.463Z,12.14
2024-04-24T04:56:15.227Z,12.22
2024-04-24T04:58:41.964Z,12.30
2024-04-24T05:01:10.154Z,12.38
2024-04-24T05:03:36.896Z,12.44
2024-04-24T05:06:03.748Z,12.48
2024-04-24T05:08:30.647Z,12.57
2024-04-24T05:10:57.543Z,12.64
2024-04-24T05:13:24.357Z,12.71
2024-04-24T05:15:51.388Z,12.77
2024-04-24T05:18:18.784Z,12.84
2024-04-24T05:20:46.330Z,12.86
2024-04-24T05:23:13.082Z,13.01
2024-04-24T05:25:40.046Z,13.13
2024-04-24T05:28:26.361Z,13.15
2024-04-24T05:30:53.549Z,13.23
2024-04-24T05:33:20.370Z,13.31
2024-04-24T05:35:47.115Z,13.31
2024-04-24T05:38:14.112Z,13.34
2024-04-24T05:40:40.858Z,13.46
2024-04-24T05:43:07.816Z,13.62
2024-04-24T05:45:34.610Z,13.82
2024-04-24T05:48:02.973Z,14.07
2024-04-24T05:50:30.020Z,14.29
2024-04-24T05:52:56.887Z,14.81
2024-04-24T05:55:26.823Z,15.53
2024-04-24T05:57:53.563Z,16.39
2024-04-24T06:00:20.717Z,16.94
2024-04-24T06:02:47.556Z,17.38
2024-04-24T06:05:14.401Z,17.72
2024-04-24T06:07:42.378Z,18.27
2024-04-24T06:10:09.128Z,18.77
2024-04-24T06:12:35.909Z,18.78
2024-04-24T06:15:02.609Z,19.25
2024-04-24T06:17:29.434Z,19.61
2024-04-24T06:19:57.130Z,19.21
2024-04-24T06:22:23.923Z,19.63
2024-04-24T06:24:50.636Z,20.01
2024-04-24T06:27:17.540Z,20.48
2024-04-24T06:29:44.340Z,20.87
2024-04-24T06:32:11.135Z,21.10
2024-04-24T06:34:38.013Z,21.60
2024-04-24T06:37:04.737Z,21.99
2024-04-24T06:39:31.444Z,21.88
2024-04-24T06:41:58.281Z,22.03
2024-04-24T06:44:25.083Z,21.73
2024-04-24T06:46:51.899Z,21.44
2024-04-24T06:49:18.715Z,21.13
2024-04-24T06:51:45.454Z,21.32
2024-04-24T06:54:12.308Z,21.78
2024-04-24T06:56:39.211Z,21.98
2024-04-24T06:59:06.001Z,22.33
2024-04-24T07:01:32.799Z,22.33
2024-04-24T07:03:59.745Z,22.36
2024-04-24T07:06:26.417Z,22.32
2024-04-24T07:08:53.311Z,22.67
2024-04-24T07:11:20.262Z,22.49
2024-04-24T07:13:47.173Z,22.83
2024-04-24T07:16:13.970Z,22.87
2024-04-24T07:18:40.983Z,23.10
2024-04-24T07:21:07.657Z,23.52
2024-04-24T07:23:34.541Z,23.64
2024-04-24T07:26:01.379Z,23.31
2024-04-24T07:28:28.121Z,23.02
2024-04-24T07:30:57.622Z,22.70
2024-04-24T07:33:24.366Z,22.36
2024-04-24T07:35:51.285Z,22.53
2024-04-24T07:38:18.212Z,22.44
2024-04-24T07:40:44.936Z,22.38
2024-04-24T07:43:15.278Z,22.40
2024-04-24T07:45:43.133Z,22.77
2024-04-24T07:48:10.335Z,23.05
2024-04-24T07:50:37.232Z,22.94
2024-04-24T07:53:04.320Z,22.88
2024-04-24T07:55:30.930Z,23.09
2024-04-24T07:57:57.634Z,23.01
2024-04-24T08:00:24.609Z,22.93
2024-04-24T08:02:51.464Z,23.26
2024-04-24T08:05:18.315Z,23.66
2024-04-24T08:07:45.131Z,24.07
2024-04-24T08:10:11.858Z,23.69
2024-04-24T08:12:38.582Z,23.20
2024-04-24T08:15:06.771Z,23.02
2024-04-24T08:17:33.603Z,23.04
2024-04-24T08:20:00.420Z,22.64
2024-04-24T08:22:27.280Z,22.08
2024-04-24T08:24:54.006Z,21.54
2024-04-24T08:27:20.748Z,21.19
2024-04-24T08:29:48.041Z,20.74
2024-04-24T08:32:14.648Z,20.69
2024-04-24T08:34:41.501Z,20.38
2024-04-24T08:37:08.335Z,20.31
2024-04-24T08:39:35.065Z,20.52
2024-04-24T08:42:02.273Z,21.00
2024-04-24T08:44:30.201Z,21.26
2024-04-24T08:46:57.606Z,21.07
2024-04-24T08:49:25.753Z,20.77
2024-04-24T08:51:53.152Z,20.77
2024-04-24T08:54:22.290Z,20.72
2024-04-24T08:57:11.569Z,20.56
2024-04-24T08:59:43.071Z,20.71
2024-04-24T09:02:11.194Z,21.00
2024-04-24T09:04:41.194Z,21.08
2024-04-24T09:07:09.471Z,21.35
2024-04-24T09:09:36.578Z,21.41
2024-04-24T09:12:07.048Z,21.44
2024-04-24T09:14:35.105Z,21.36
2024-04-24T09:17:03.557Z,21.62
2024-04-24T09:19:30.816Z,21.91
2024-04-24T09:21:57.423Z,21.91
2024-04-24T09:24:24.332Z,21.70
2024-04-24T09:26:51.453Z,21.48
2024-04-24T09:29:18.844Z,21.68
2024-04-24T09:31:45.683Z,21.78
2024-04-24T09:34:12.585Z,21.57
2024-04-24T09:36:43.000Z,21.23
2024-04-24T09:39:17.358Z,21.30
2024-04-24T09:41:47.744Z,21.44
2024-04-24T09:44:15.335Z,21.58
2024-04-24T09:46:53.921Z,21.51
2024-04-24T09:49:21.773Z,21.82
2024-04-24T09:51:49.416Z,21.96
2024-04-24T09:54:16.659Z,21.84
2024-04-24T09:56:47.048Z,21.48
2024-04-24T09:59:14.808Z,21.77
2024-04-24T10:01:51.808Z,21.68
2024-04-24T10:04:19.172Z,21.50
2024-04-24T10:06:48.897Z,21.33
2024-04-24T10:09:20.979Z,21.20
2024-04-24T10:11:54.717Z,21.22
2024-04-24T10:14:24.569Z,21.40
2024-04-24T10:16:51.943Z,21.37
2024-04-24T10:19:19.008Z,21.36
2024-04-24T10:21:46.424Z,21.56
2024-04-24T10:24:13.911Z,21.70
2024-04-24T10:26:42.808Z,21.73
2024-04-24T10:29:14.622Z,21.60
2024-04-24T10:31:43.852Z,21.57
2024-04-24T10:34:12.201Z,21.67
2024-04-24T10:36:39.100Z,21.62
2024-04-24T10:39:05.942Z,21.42
2024-04-24T10:41:33.895Z,21.41
2024-04-24T10:44:01.211Z,21.55
2024-04-24T10:46:28.077Z,21.47
2024-04-24T10:48:57.414Z,21.57
2024-04-24T10:51:34.790Z,21.72
2024-04-24T10:54:07.621Z,21.82
2024-04-24T10:56:39.053Z,21.73
2024-04-24T10:59:07.481Z,21.59
2024-04-24T11:01:42.812Z,21.47
2024-04-24T11:04:17.877Z,21.43
2024-04-24T11:06:45.732Z,21.56
2024-04-24T11:09:12.545Z,21.71
2024-04-24T11:11:39.547Z,21.94
2024-04-24T11:14:10.440Z,22.07
2024-04-24T11:16:39.195Z,22.25
2024-04-24T11:19:06.212Z,22.47
2024-04-24T11:21:32.943Z,22.53
2024-04-24T11:24:00.523Z,22.69
2024-04-24T11:26:33.035Z,22.64
2024-04-24T11:29:04.224Z,22.40
2024-04-24T11:31:32.143Z,22.29
2024-04-24T11:34:00.356Z,22.28
2024-04-24T11:36:28.949Z,22.41
2024-04-24T11:38:56.080Z,22.47
2024-04-24T11:41:22.717Z,22.48
2024-04-24T11:43:50.992Z,22.31
2024-04-24T11:46:21.233Z,22.34
2024-04-24T11:48:52.628Z,22.29
2024-04-24T11:51:22.629Z,22.20
2024-04-24T11:53:53.750Z,21.98
2024-04-24T11:56:27.306Z,22.11
2024-04-24T11:58:54.180Z,22.24
2024-04-24T12:01:21.534Z,22.27
2024-04-24T12:03:48.605Z,22.09
2024-04-24T12:06:15.391Z,22.07
2024-04-24T12:08:43.426Z,22.07
2024-04-24T12:11:10.442Z,21.96
2024-04-24T12:13:37.307Z,22.04
2024-04-24T12:16:04.646Z,22.11
2024-04-24T12:18:32.884Z,22.39
2024-04-24T12:21:02.329Z,22.49
2024-04-24T12:23:32.073Z,22.59
2024-04-24T12:25:58.974Z,22.56
2024-04-24T12:28:25.812Z,22.48
2024-04-24T12:30:52.645Z,22.64
2024-04-24T12:33:19.639Z,22.69
2024-04-24T12:35:46.559Z,22.90
2024-04-24T12:38:13.282Z,22.97
2024-04-24T12:40:40.046Z,23.00
2024-04-24T12:43:06.966Z,22.84
2024-04-24T12:45:35.866Z,22.80
2024-04-24T12:48:03.048Z,22.68
2024-04-24T12:50:29.960Z,22.72
2024-04-24T12:52:56.920Z,22.64
2024-04-24T12:55:23.855Z,22.46
2024-04-24T12:57:50.926Z,22.59
2024-04-24T13:00:20.051Z,22.70
2024-04-24T13:02:47.590Z,22.88
2024-04-24T13:05:14.548Z,22.93
2024-04-24T13:07:41.360Z,22.88
2024-04-24T13:10:08.424Z,22.81
2024-04-24T13:12:36.661Z,22.84
2024-04-24T13:15:04.493Z,22.83
2024-04-24T13:17:31.386Z,22.80
2024-04-24T13:19:58.177Z,22.80
2024-04-24T13:22:24.942Z,22.79
2024-04-24T13:24:51.927Z,22.79
2024-04-24T13:27:19.704Z,22.77
2024-04-24T13:29:46.570Z,22.82
2024-04-24T13:32:13.866Z,22.69
2024-04-24T13:34:40.693Z,22.64
2024-04-24T13:37:07.463Z,22.66
2024-04-24T13:39:37.898Z,22.66
2024-04-24T13:42:05.036Z,22.71
2024-04-24T13:44:31.892Z,22.78
2024-04-24T13:46:58.827Z,22.77
2024-04-24T13:49:25.620Z,22.78
2024-04-24T13:51:52.337Z,22.81
2024-04-24T13:54:19.352Z,22.91
2024-04-24T13:56:46.147Z,22.89
2024-04-24T13:59:14.081Z,22.90
2024-04-24T14:01:40.944Z,22.94
2024-04-24T14:04:07.920Z,22.62
2024-04-24T14:06:34.771Z,22.63
2024-04-24T14:09:02.328Z,22.71
2024-04-24T14:11:29.246Z,22.43
2024-04-24T14:13:56.098Z,22.44
2024-04-24T14:16:23.040Z,22.49
2024-04-24T14:18:49.907Z,22.44
2024-04-24T14:21:18.131Z,22.50
2024-04-24T14:23:45.703Z,22.53
2024-04-24T14:26:12.490Z,22.37
2024-04-24T14:28:39.920Z,22.36
2024-04-24T14:31:06.663Z,22.17
2024-04-24T14:33:34.660Z,22.17
2024-04-24T14:36:01.388Z,22.16
2024-04-24T14:38:28.251Z,22.12
2024-04-24T14:40:55.041Z,22.05
2024-04-24T14:43:22.377Z,22.06
2024-04-24T14:45:48.971Z,22.03
2024-04-24T14:48:15.803Z,22.00
2024-04-24T14:50:42.648Z,21.88
2024-04-24T14:53:09.453Z,21.96
2024-04-24T14:55:37.865Z,22.00
2024-04-24T14:58:05.738Z,21.97
2024-04-24T15:00:32.505Z,21.95
2024-04-24T15:02:59.409Z,21.86
2024-04-24T15:05:26.351Z,21.86
2024-04-24T15:07:53.074Z,21.88
2024-04-24T15:10:20.061Z,21.90
2024-04-24T15:12:46.780Z,21.82
2024-04-24T15:15:13.632Z,21.66
2024-04-24T15:17:40.532Z,21.72
2024-04-24T15:20:07.918Z,21.72
2024-04-24T15:22:34.721Z,21.46
2024-04-24T15:25:01.667Z,21.63
2024-04-24T15:27:28.343Z,21.71
2024-04-24T15:29:55.127Z,21.69
2024-04-24T15:32:22.118Z,21.70
2024-04-24T15:34:49.478Z,21.73
2024-04-24T15:37:16.219Z,21.73
2024-04-24T15:39:42.937Z,21.70
2024-04-24T15:42:09.659Z,21.54
2024-04-24T15:44:37.132Z,21.46
2024-04-24T15:47:03.971Z,21.46
2024-04-24T15:49:30.703Z,21.49
2024-04-24T15:51:57.613Z,21.30
2024-04-24T15:54:24.446Z,21.22
2024-04-24T15:56:51.264Z,21.24
2024-04-24T15:59:18.033Z,21.08
2024-04-24T16:01:44.799Z,20.77
2024-04-24T16:04:11.708Z,20.64
2024-04-24T16:06:38.433Z,20.60
2024-04-24T16:09:05.143Z,20.51
2024-04-24T16:11:32.481Z,20.52
2024-04-24T16:13:59.323Z,20.36
2024-04-24T16:16:26.121Z,20.25
2024-04-24T16:18:53.216Z,20.18
2024-04-24T16:21:20.145Z,20.14
2024-04-24T16:23:46.888Z,20.09
2024-04-24T16:26:15.979Z,20.00
2024-04-24T16:28:42.884Z,19.87
2024-04-24T16:31:11.115Z,19.72
2024-04-24T16:33:38.084Z,19.54
2024-04-24T16:36:07.744Z,19.51
2024-04-24T16:38:34.558Z,19.47
2024-04-24T16:41:01.484Z,19.47
2024-04-24T16:43:28.845Z,19.35
2024-04-24T16:45:55.653Z,19.28
2024-04-24T16:48:22.608Z,19.15
2024-04-24T16:50:49.534Z,19.14
2024-04-24T16:53:16.328Z,19.13
2024-04-24T16:55:43.676Z,19.01
2024-04-24T16:58:10.276Z,19.01
2024-04-24T17:00:37.255Z,18.86
2024-04-24T17:03:04.200Z,18.85
2024-04-24T17:05:31.184Z,18.74
2024-04-24T17:07:58.636Z,18.80
2024-04-24T17:10:25.533Z,18.63
2024-04-24T17:12:52.237Z,18.54
2024-04-24T17:15:19.163Z,18.51
2024-04-24T17:17:46.045Z,18.35
2024-04-24T17:20:13.021Z,18.33
2024-04-24T17:22:40.438Z,18.40
2024-04-24T17:25:07.164Z,18.35
2024-04-24T17:27:33.893Z,18.35
2024-04-24T17:30:00.632Z,18.37
2024-04-24T17:32:27.554Z,18.37
2024-04-24T17:34:54.645Z,18.25
2024-04-24T17:37:21.414Z,18.16
2024-04-24T17:39:48.323Z,18.02
2024-04-24T17:42:15.071Z,17.87
2024-04-24T17:44:42.094Z,17.77
2024-04-24T17:47:11.777Z,17.80
2024-04-24T17:49:38.921Z,17.78
2024-04-24T17:52:05.896Z,17.67
2024-04-24T17:54:32.705Z,17.59
2024-04-24T17:56:59.425Z,17.58
2024-04-24T17:59:26.346Z,17.56
2024-04-24T18:01:53.069Z,17.61
2024-04-24T18:04:19.852Z,17.69
2024-04-24T18:06:46.814Z,17.77
2024-04-24T18:09:13.526Z,17.90
2024-04-24T18:11:40.287Z,17.98
2024-04-24T18:14:07.314Z,18.03
2024-04-24T18:16:34.056Z,18.08
2024-04-24T18:19:00.895Z,18.06
2024-04-24T18:21:27.822Z,18.03
2024-04-24T18:23:54.614Z,17.89
2024-04-24T18:26:21.464Z,17.77
2024-04-24T18:28:48.219Z,17.66
2024-04-24T18:31:14.983Z,17.51
2024-04-24T18:33:42.213Z,17.39
2024-04-24T18:36:09.018Z,17.24
2024-04-24T18:38:35.791Z,17.20
2024-04-24T18:41:02.763Z,17.09
2024-04-24T18:43:29.518Z,17.02
2024-04-24T18:45:56.226Z,16.97
2024-04-24T18:48:23.096Z,16.85
2024-04-24T18:50:52.441Z,16.70
2024-04-24T18:53:19.315Z,16.65
2024-04-24T18:55:46.073Z,16.61
2024-04-24T18:58:12.856Z,16.42
2024-04-24T19:00:40.152Z,16.25
2024-04-24T19:03:06.760Z,16.09
2024-04-24T19:05:33.593Z,15.48
2024-04-24T19:08:00.693Z,15.55
2024-04-24T19:10:28.191Z,15.55
2024-04-24T19:12:55.185Z,15.42
2024-04-24T19:15:24.085Z,15.43
2024-04-24T19:17:50.964Z,15.46
2024-04-24T19:20:17.856Z,15.42
2024-04-24T19:22:44.679Z,15.24
2024-04-24T19:25:11.468Z,15.24
2024-04-24T19:27:41.621Z,15.29
2024-04-24T19:30:10.621Z,15.18
2024-04-24T19:32:39.871Z,15.18
2024-04-24T19:35:06.996Z,15.21
2024-04-24T19:37:33.867Z,15.19
2024-04-24T19:40:00.771Z,15.18
2024-04-24T19:42:30.579Z,15.10
2024-04-24T19:44:57.403Z,14.95
2024-04-24T19:47:24.266Z,14.77
2024-04-24T19:49:51.869Z,14.69
2024-04-24T19:52:19.025Z,14.62
2024-04-24T19:54:45.781Z,14.71
2024-04-24T19:57:13.741Z,14.72
2024-04-24T19:59:40.637Z,14.77
2024-04-24T20:02:07.398Z,14.75
2024-04-24T20:04:34.292Z,14.79
2024-04-24T20:07:01.092Z,14.81
2024-04-24T20:09:27.943Z,14.75
2024-04-24T20:11:55.212Z,14.71
2024-04-24T20:14:21.940Z,14.66
2024-04-24T20:16:48.759Z,14.70
2024-04-24T20:19:17.500Z,14.61
2024-04-24T20:21:45.063Z,14.50
2024-04-24T20:24:13.918Z,14.52
2024-04-24T20:26:40.893Z,14.40
2024-04-24T20:29:07.731Z,14.28
2024-04-24T20:31:35.555Z,14.19
2024-04-24T20:34:04.345Z,14.24
2024-04-24T20:36:31.235Z,14.11
2024-04-24T20:39:00.135Z,14.17
2024-04-24T20:41:26.915Z,14.15
2024-04-24T20:43:53.738Z,14.17
2024-04-24T20:46:20.677Z,14.22
2024-04-24T20:48:47.578Z,14.18
2024-04-24T20:51:14.407Z,14.15
2024-04-24T20:53:41.530Z,14.16
2024-04-24T20:56:17.463Z,14.12
2024-04-24T20:58:44.527Z,14.15
2024-04-24T21:01:11.464Z,14.18
2024-04-24T21:03:38.288Z,14.13
2024-04-24T21:06:09.768Z,14.13
2024-04-24T21:08:37.398Z,13.94
2024-04-24T21:11:04.894Z,13.60
2024-04-24T21:13:32.371Z,13.49
2024-04-24T21:15:59.138Z,13.51
2024-04-24T21:18:25.986Z,13.68
2024-04-24T21:20:52.973Z,13.86
2024-04-24T21:23:19.743Z,13.90
2024-04-24T21:25:46.492Z,13.92
2024-04-24T21:28:14.851Z,13.99
2024-04-24T21:30:41.545Z,14.06
2024-04-24T21:33:08.379Z,14.00
2024-04-24T21:35:36.002Z,13.99
2024-04-24T21:38:02.824Z,13.86
2024-04-24T21:40:29.563Z,13.87
2024-04-24T21:42:57.281Z,13.93
2024-04-24T21:45:27.580Z,13.95
2024-04-24T21:47:55.192Z,13.92
2024-04-24T21:50:22.299Z,13.92
2024-04-24T21:52:49.214Z,14.08
2024-04-24T21:55:16.025Z,13.99
2024-04-24T21:57:42.904Z,14.00
2024-04-24T22:00:10.133Z,13.97
2024-04-24T22:02:36.932Z,14.01
2024-04-24T22:05:04.495Z,13.98
2024-04-24T22:07:31.226Z,13.99
2024-04-24T22:09:57.992Z,13.99
2024-04-24T22:12:24.768Z,14.08
2024-04-24T22:14:51.537Z,14.12
2024-04-24T22:17:22.114Z,14.14
2024-04-24T22:19:54.530Z,14.19
2024-04-24T22:22:23.058Z,14.18
2024-04-24T22:24:50.050Z,14.19
2024-04-24T22:27:16.991Z,14.16
2024-04-24T22:29:43.725Z,14.11
2024-04-24T22:32:10.521Z,14.03
2024-04-24T22:34:40.192Z,13.91
2024-04-24T22:37:11.179Z,13.87
2024-04-24T22:39:37.900Z,13.80
2024-04-24T22:42:05.032Z,13.76
2024-04-24T22:44:32.082Z,13.73
2024-04-24T22:46:58.888Z,13.70
2024-04-24T22:49:25.677Z,13.75
2024-04-24T22:51:52.384Z,13.82
2024-04-24T22:54:19.417Z,13.84
2024-04-24T22:56:46.863Z,13.85
2024-04-24T22:59:13.471Z,13.81
2024-04-24T23:01:40.313Z,13.77
2024-04-24T23:04:07.830Z,13.69
2024-04-24T23:06:34.610Z,13.66
2024-04-24T23:09:01.839Z,13.69
2024-04-24T23:11:28.727Z,13.61
2024-04-24T23:13:55.538Z,13.61
2024-04-24T23:16:22.277Z,13.60
2024-04-24T23:18:49.693Z,13.54
2024-04-24T23:21:16.381Z,13.55
2024-04-24T23:23:43.202Z,13.57
2024-04-24T23:26:10.179Z,13.61
2024-04-24T23:28:36.930Z,13.62
2024-04-24T23:31:04.835Z,13.60
2024-04-24T23:33:31.890Z,13.61
2024-04-24T23:36:04.377Z,13.58
2024-04-24T23:38:32.511Z,13.44
2024-04-24T23:40:59.311Z,13.37
2024-04-24T23:43:26.038Z,13.44
2024-04-24T23:45:52.981Z,13.41
2024-04-24T23:48:19.922Z,13.35
2024-04-24T23:50:46.720Z,13.32
2024-04-24T23:53:13.705Z,13.33
2024-04-24T23:55:40.704Z,13.25
2024-04-24T23:58:07.460Z,13.25
